Time;durP1;ratioP1;P1;durP2;ratioP2;P2;SDS_P1;SDS_P2;PMS_P1;PMS_P2;Temp;Humidity;BMP_temperature;BMP_pressure;BME280_temperature;BME280_humidity;BME280_pressure;Samples;Min_cycle;Max_cycle;Signal;HPM_P1;HPM_P2
2022/12/07 00:02:09;;;;;;;1.98;0.82;;;;;;;17.65;47.85;101796.91;16117208;19;129593;-43
2022/12/07 00:07:31;;;;;;;2.08;0.90;;;;;;;17.62;47.80;101790.94;16115635;19;129396;-43
2022/12/07 00:12:53;;;;;;;2.10;0.80;;;;;;;17.58;47.86;101789.69;16115970;19;129241;-42
2022/12/07 00:18:15;;;;;;;1.02;0.77;;;;;;;17.56;48.21;101783.53;16116421;19;131191;-45
2022/12/07 00:23:37;;;;;;;1.75;0.70;;;;;;;17.54;48.08;101795.66;16117066;19;129336;-42
2022/12/07 00:29:02;;;;;;;2.28;0.80;;;;;;;17.51;48.00;101785.00;16116922;19;130231;-42
2022/12/07 00:34:24;;;;;;;1.20;0.70;;;;;;;17.49;48.13;101776.06;16117921;19;129128;-42
2022/12/07 00:39:46;;;;;;;3.22;1.15;;;;;;;17.46;47.98;101773.75;16130640;19;130169;-45
2022/12/07 00:45:08;;;;;;;1.30;0.73;;;;;;;17.44;48.00;101769.47;16128779;19;129742;-42
2022/12/07 00:50:30;;;;;;;1.10;0.65;;;;;;;17.41;47.80;101779.06;16129770;19;128975;-43
2022/12/07 00:55:52;;;;;;;2.17;0.70;;;;;;;17.40;47.68;101777.38;16130114;19;129576;-45
2022/12/07 01:01:14;;;;;;;2.60;0.73;;;;;;;17.37;47.79;101762.06;16130134;19;129208;-42
2022/12/07 01:06:36;;;;;;;1.13;0.90;;;;;;;17.35;48.24;101766.13;16130101;19;130426;-42
2022/12/07 01:11:58;;;;;;;2.38;0.60;;;;;;;17.33;47.71;101765.50;16128101;19;130365;-41
2022/12/07 01:17:19;;;;;;;1.65;0.85;;;;;;;17.31;47.73;101767.63;16128575;19;131218;-47
2022/12/07 01:22:43;;;;;;;1.63;0.70;;;;;;;17.30;47.84;101776.97;16130844;19;129933;-48
2022/12/07 01:28:04;;;;;;;1.42;0.60;;;;;;;17.28;48.21;101773.56;16130194;19;130351;-49
2022/12/07 01:33:28;;;;;;;1.13;0.60;;;;;;;17.27;48.24;101771.88;16127866;19;130254;-47
2022/12/07 01:38:53;;;;;;;2.38;0.65;;;;;;;17.23;47.73;101777.81;16128891;19;131183;-43
2022/12/07 01:44:27;;;;;;;1.20;0.80;;;;;;;17.25;47.92;101783.16;16128073;19;129526;-44
2022/12/07 01:49:49;;;;;;;0.80;0.63;;;;;;;17.21;47.78;101777.22;16125295;19;128935;-42
2022/12/07 01:55:14;;;;;;;1.27;0.70;;;;;;;17.19;48.23;101779.34;16126998;19;130829;-42
2022/12/07 02:00:36;;;;;;;1.80;0.70;;;;;;;17.16;48.35;101765.09;16127349;19;129471;-42
2022/12/07 02:06:00;;;;;;;1.15;0.65;;;;;;;17.16;47.93;101774.25;16127556;19;133073;-42
2022/12/07 02:11:22;;;;;;;1.25;0.70;;;;;;;17.14;47.82;101776.38;16123996;19;130602;-42
2022/12/07 02:17:04;;;;;;;0.90;0.63;;;;;;;17.14;48.25;101779.13;16126212;19;130574;-45
2022/12/07 02:22:31;;;;;;;0.60;0.55;;;;;;;17.11;48.02;101768.50;16123487;19;130280;-43
2022/12/07 02:28:04;;;;;;;3.22;0.80;;;;;;;17.11;47.97;101779.56;16125989;19;130517;-43
2022/12/07 02:33:34;;;;;;;1.17;0.63;;;;;;;17.08;48.07;101775.31;16120933;19;129830;-41
2022/12/07 02:39:22;;;;;;;1.00;0.70;;;;;;;17.08;48.14;101764.25;16123322;19;129747;-43
2022/12/07 02:44:46;;;;;;;0.95;0.60;;;;;;;17.05;48.31;101758.31;16124212;19;129791;-45
2022/12/07 02:50:08;;;;;;;0.40;0.40;;;;;;;17.04;47.94;101756.59;16121892;19;131456;-42
2022/12/07 02:55:40;;;;;;;1.23;0.52;;;;;;;17.05;47.93;101766.59;16119311;19;129439;-42
2022/12/07 03:01:20;;;;;;;0.82;0.57;;;;;;;17.04;48.34;101763.00;16120763;19;129694;-43
2022/12/07 03:06:50;;;;;;;0.50;0.50;;;;;;;17.01;48.07;101763.44;16123854;19;129804;-45
2022/12/07 03:12:18;;;;;;;0.90;0.50;;;;;;;17.00;48.11;101755.31;16120868;19;129401;-42
2022/12/07 03:17:44;;;;;;;0.52;0.40;;;;;;;16.98;48.32;101757.47;16122924;19;130268;-43
2022/12/07 03:23:09;;;;;;;0.82;0.40;;;;;;;16.97;48.13;101755.78;16122420;19;130576;-42
2022/12/07 03:28:39;;;;;;;1.05;0.63;;;;;;;16.97;47.95;101739.19;16121116;19;129451;-42
2022/12/07 03:34:05;;;;;;;1.02;0.60;;;;;;;16.94;48.34;101743.22;16120115;19;130007;-42
2022/12/07 03:39:33;;;;;;;0.82;0.50;;;;;;;16.94;48.24;101740.44;16118582;19;129869;-44
2022/12/07 03:44:55;;;;;;;0.52;0.50;;;;;;;16.91;47.92;101740.91;16119605;19;129346;-44
2022/12/07 03:50:31;;;;;;;1.27;0.50;;;;;;;16.92;48.36;101740.69;16116906;19;129707;-43
2022/12/07 03:55:54;;;;;;;0.50;0.50;;;;;;;16.90;48.15;101745.56;16115713;19;129657;-44
2022/12/07 04:01:17;;;;;;;0.57;0.40;;;;;;;16.88;48.09;101733.88;16116209;19;130124;-42
2022/12/07 04:06:39;;;;;;;0.63;0.40;;;;;;;16.87;48.22;101737.69;16116291;19;129450;-43
2022/12/07 04:12:01;;;;;;;0.73;0.50;;;;;;;16.86;48.30;101738.75;16129598;19;129881;-44
2022/12/07 04:17:23;;;;;;;0.93;0.60;;;;;;;16.86;48.04;101738.75;16131175;19;129697;-43
2022/12/07 04:22:45;;;;;;;0.57;0.50;;;;;;;16.84;48.10;101735.38;16130933;19;130222;-42
2022/12/07 04:28:06;;;;;;;0.63;0.47;;;;;;;16.84;48.43;101731.75;16131329;19;129490;-43
2022/12/07 04:33:28;;;;;;;0.77;0.50;;;;;;;16.82;48.16;101737.50;16130737;19;129500;-44
2022/12/07 04:38:50;;;;;;;0.50;0.40;;;;;;;16.81;47.95;101741.34;16133808;19;130281;-43
2022/12/07 04:44:14;;;;;;;0.98;0.60;;;;;;;16.81;47.88;101763.44;16130772;19;130206;-41
2022/12/07 04:49:36;;;;;;;0.50;0.47;;;;;;;16.79;47.90;101759.19;16131966;19;130044;-45
2022/12/07 04:54:57;;;;;;;0.73;0.60;;;;;;;16.79;47.69;101750.91;16133080;19;129931;-42
2022/12/07 05:00:19;;;;;;;1.23;0.60;;;;;;;16.77;47.90;101724.34;16129340;19;130368;-42
2022/12/07 05:05:41;;;;;;;0.88;0.60;;;;;;;16.74;48.02;101721.13;16129835;19;129684;-44
2022/12/07 05:11:05;;;;;;;0.75;0.50;;;;;;;16.74;47.78;101726.66;16130664;19;129573;-42
2022/12/07 05:16:27;;;;;;;1.30;0.63;;;;;;;16.72;47.78;101726.88;16129835;19;129621;-40
2022/12/07 05:21:49;;;;;;;0.50;0.50;;;;;;;16.72;47.72;101720.53;16128008;19;131015;-41
2022/12/07 05:27:10;;;;;;;0.43;0.43;;;;;;;16.71;47.68;101727.94;16128674;19;129635;-41
2022/12/07 05:32:32;;;;;;;0.50;0.40;;;;;;;16.71;47.95;101729.88;16128918;19;129694;-41
2022/12/07 05:37:55;;;;;;;0.75;0.40;;;;;;;16.70;47.99;101729.00;16129809;19;129844;-42
2022/12/07 05:43:17;;;;;;;0.98;0.45;;;;;;;16.70;47.85;101728.16;16126895;19;129474;-43
2022/12/07 05:48:39;;;;;;;1.05;0.38;;;;;;;16.69;47.97;101727.31;16127510;19;129499;-42
2022/12/07 05:54:01;;;;;;;0.28;0.28;;;;;;;16.68;47.68;101730.28;16128163;19;130171;-41
2022/12/07 05:59:23;;;;;;;0.50;0.32;;;;;;;16.68;47.75;101735.81;16126851;19;129748;-46
2022/12/07 06:04:46;;;;;;;0.30;0.30;;;;;;;16.68;48.24;101724.75;16125717;19;129880;-41
2022/12/07 06:10:08;;;;;;;0.30;0.30;;;;;;;16.88;48.55;101724.75;16126529;19;129715;-41
2022/12/07 06:15:30;;;;;;;0.20;0.20;;;;;;;17.46;48.00;101726.72;16126661;19;129643;-42
2022/12/07 06:20:52;;;;;;;0.30;0.28;;;;;;;18.09;47.42;101727.88;16126214;19;129490;-44
2022/12/07 06:26:14;;;;;;;0.55;0.30;;;;;;;18.71;46.76;101726.38;16124188;19;129653;-43
2022/12/07 06:31:37;;;;;;;0.25;0.25;;;;;;;19.24;45.87;101736.13;16125124;19;129583;-42
2022/12/07 06:36:58;;;;;;;0.30;0.20;;;;;;;19.61;45.25;101726.94;16124147;19;130441;-42
2022/12/07 06:42:21;;;;;;;4.88;0.32;;;;;;;19.74;44.96;101725.91;16122399;19;130041;-44
2022/12/07 06:47:42;;;;;;;11.60;1.35;;;;;;;19.61;44.15;101725.00;16124115;19;129942;-43
2022/12/07 06:53:08;;;;;;;13.68;1.30;;;;;;;19.44;43.10;101721.19;16122880;19;129369;-43
2022/12/07 06:58:31;;;;;;;9.27;1.33;;;;;;;19.25;43.24;101721.16;16126246;19;131077;-42
2022/12/07 07:03:53;;;;;;;14.75;1.50;;;;;;;19.05;43.36;101725.00;16124124;19;130315;-43
2022/12/07 07:09:14;;;;;;;6.95;1.17;;;;;;;18.86;43.34;101735.22;16124356;19;130251;-42
2022/12/07 07:14:36;;;;;;;5.78;1.40;;;;;;;18.70;43.66;101727.47;16124344;19;130138;-42
2022/12/07 07:19:58;;;;;;;12.10;1.75;;;;;;;18.51;43.95;101732.97;16123618;19;130559;-44
2022/12/07 07:25:20;;;;;;;5.43;0.82;;;;;;;18.38;43.75;101725.56;16121609;19;129547;-41
2022/12/07 07:30:42;;;;;;;10.27;1.20;;;;;;;18.24;43.84;101726.72;16122460;19;129703;-43
2022/12/07 07:36:04;;;;;;;4.30;1.17;;;;;;;18.12;43.90;101733.00;16120590;19;129351;-41
2022/12/07 07:41:26;;;;;;;7.13;1.00;;;;;;;18.02;44.23;101718.78;16118815;19;129531;-41
2022/12/07 07:46:48;;;;;;;4.45;1.17;;;;;;;18.01;44.43;101722.63;16113787;19;129480;-42
2022/12/07 07:52:09;;;;;;;4.95;1.30;;;;;;;18.04;44.03;101727.72;16117895;19;131028;-41
2022/12/07 07:57:31;;;;;;;6.20;1.20;;;;;;;18.10;43.95;101726.81;16116860;19;131033;-43
2022/12/07 08:02:53;;;;;;;3.42;0.80;;;;;;;18.17;43.77;101742.56;16116935;19;129777;-42
2022/12/07 08:08:15;;;;;;;2.88;1.00;;;;;;;18.23;43.61;101752.72;16118847;19;129832;-42
2022/12/07 08:13:37;;;;;;;11.57;1.40;;;;;;;18.36;43.31;101760.94;16118994;19;129651;-44
2022/12/07 08:18:59;;;;;;;15.32;1.35;;;;;;;18.69;42.90;101761.78;16120600;19;129516;-42
2022/12/07 08:24:20;;;;;;;8.50;1.25;;;;;;;19.02;42.99;101755.06;16114981;19;129335;-43
2022/12/07 08:29:42;;;;;;;4.78;1.10;;;;;;;19.25;42.44;101748.91;16117715;19;129746;-43
2022/12/07 08:35:04;;;;;;;9.30;1.30;;;;;;;19.43;41.88;101752.78;16114662;19;129244;-42
2022/12/07 08:40:26;;;;;;;10.02;1.20;;;;;;;19.58;42.02;101755.16;16113413;19;129494;-43
2022/12/07 08:46:01;;;;;;;6.50;1.23;;;;;;;19.71;41.82;101763.31;16108446;19;129395;-41
2022/12/07 08:51:23;;;;;;;6.00;0.73;;;;;;;19.77;42.36;101759.59;16102361;19;130803;-42
2022/12/07 08:56:47;;;;;;;6.90;1.20;;;;;;;19.77;42.09;101761.53;16109891;19;129322;-40
2022/12/07 09:02:14;;;;;;;6.68;0.93;;;;;;;19.69;42.26;101760.75;16123450;19;129346;-41
2022/12/07 09:07:37;;;;;;;8.07;0.95;;;;;;;19.56;42.21;101749.84;16129324;19;129645;-42
2022/12/07 09:13:00;;;;;;;18.90;1.83;;;;;;;19.41;42.13;101763.25;16129736;19;130853;-41
2022/12/07 09:18:24;;;;;;;8.88;1.23;;;;;;;19.21;41.86;101756.84;16127603;19;129596;-41
2022/12/07 09:23:45;;;;;;;11.77;1.75;;;;;;;19.09;41.53;101750.34;16126445;19;130127;-42
2022/12/07 09:29:07;;;;;;;8.55;1.20;;;;;;;18.99;41.95;101753.63;16124522;19;129238;-41
2022/12/07 09:34:31;;;;;;;4.60;1.65;;;;;;;18.94;41.95;101747.94;16129280;19;129344;-40
2022/12/07 09:39:53;;;;;;;13.82;1.40;;;;;;;18.86;42.41;101753.75;16131685;19;134139;-40
2022/12/07 09:45:21;;;;;;;9.00;1.27;;;;;;;18.81;41.95;101754.44;16127971;19;131158;-40
2022/12/07 09:50:42;;;;;;;6.55;1.20;;;;;;;18.71;42.42;101745.78;16126443;19;129812;-40
2022/12/07 09:56:05;;;;;;;4.68;1.27;;;;;;;18.64;42.11;101737.53;16124152;19;129545;-42
2022/12/07 10:01:34;;;;;;;8.68;1.27;;;;;;;18.60;42.39;101730.75;16122493;19;129876;-41
2022/12/07 10:06:56;;;;;;;6.65;1.50;;;;;;;18.55;42.36;101723.09;16119974;19;130775;-41
2022/12/07 10:12:17;;;;;;;13.07;1.70;;;;;;;18.50;42.28;101722.97;16123711;19;129338;-40
2022/12/07 10:17:47;;;;;;;7.72;1.40;;;;;;;18.44;42.43;101715.53;16124936;19;129178;-42
2022/12/07 10:23:18;;;;;;;7.03;1.20;;;;;;;18.40;42.39;101726.22;16124468;19;129788;-44
2022/12/07 10:28:39;;;;;;;3.97;1.20;;;;;;;18.32;42.85;101726.47;16125629;19;129403;-41
2022/12/07 10:34:03;;;;;;;3.97;0.98;;;;;;;18.27;42.66;101720.75;16124830;19;129736;-40
2022/12/07 10:39:24;;;;;;;4.55;1.00;;;;;;;18.22;42.91;101729.72;16126164;19;131358;-42
2022/12/07 10:44:48;;;;;;;5.00;0.88;;;;;;;18.18;43.10;101722.09;16121815;19;129368;-41
2022/12/07 10:50:37;;;;;;;7.93;0.90;;;;;;;18.13;43.23;101720.84;16123956;19;129837;-41
2022/12/07 10:56:24;;;;;;;2.17;0.70;;;;;;;18.13;43.04;101709.75;16123572;19;131166;-41
2022/12/07 11:01:52;;;;;;;3.90;1.08;;;;;;;18.30;43.09;101706.47;16123463;19;129918;-41
2022/12/07 11:07:29;;;;;;;1.95;0.82;;;;;;;18.58;42.82;101694.13;16125037;19;129266;-43
2022/12/07 11:13:17;;;;;;;2.33;0.75;;;;;;;18.89;42.63;101687.59;16122737;19;129300;-41
2022/12/07 11:19:06;;;;;;;2.72;0.70;;;;;;;19.18;42.69;101681.53;16121860;19;129409;-40
2022/12/07 11:24:49;;;;;;;2.33;0.60;;;;;;;19.51;42.25;101669.19;16121242;19;129806;-43
2022/12/07 11:30:23;;;;;;;4.57;0.98;;;;;;;19.83;41.42;101661.47;16119549;19;130498;-44
2022/12/07 11:36:01;;;;;;;11.93;1.42;;;;;;;19.98;40.29;101661.03;16121681;19;130344;-41
2022/12/07 11:41:28;;;;;;;10.75;1.55;;;;;;;20.04;39.66;101650.09;16122980;19;130291;-43
2022/12/07 11:47:18;;;;;;;4.15;1.42;;;;;;;20.05;39.64;101641.50;16121782;19;130157;-42
2022/12/07 11:52:46;;;;;;;7.90;1.50;;;;;;;20.03;39.81;101631.72;16124020;19;129047;-40
2022/12/07 11:58:38;;;;;;;18.45;2.08;;;;;;;19.93;39.83;101630.38;16119327;19;130522;-40
2022/12/07 12:04:09;;;;;;;18.60;2.53;;;;;;;19.81;39.71;101629.50;16120990;19;130147;-44
2022/12/07 12:09:39;;;;;;;13.60;1.52;;;;;;;19.64;40.15;101630.16;16122627;19;129266;-41
2022/12/07 12:15:13;;;;;;;12.27;2.05;;;;;;;19.51;40.20;101630.34;16120330;19;129957;-41
2022/12/07 12:21:10;;;;;;;11.57;1.90;;;;;;;19.36;40.16;101622.44;16122994;19;129521;-41
2022/12/07 12:26:35;;;;;;;16.58;1.73;;;;;;;19.20;40.73;101623.91;16120177;19;129117;-44
2022/12/07 12:32:15;;;;;;;;;;;;;;;19.07;40.81;101613.81;16129234;19;129553;-41
2022/12/07 12:37:37;;;;;;;7.25;1.08;;;;;;;19.01;41.06;101596.19;16134882;19;131402;-48
2022/12/07 12:42:59;;;;;;;5.93;1.10;;;;;;;18.92;40.60;101594.81;16133987;19;131050;-46
2022/12/07 12:48:36;;;;;;;7.63;1.30;;;;;;;18.83;41.08;101594.28;16130399;19;129501;-41
2022/12/07 12:54:18;;;;;;;6.10;1.15;;;;;;;18.74;41.01;101585.41;16133133;19;129285;-43
2022/12/07 12:59:52;;;;;;;7.65;1.00;;;;;;;18.67;41.54;101590.19;16130738;19;129923;-42
2022/12/07 13:05:14;;;;;;;6.95;0.88;;;;;;;18.58;41.21;101591.59;16132405;19;131232;-40
2022/12/07 13:10:41;;;;;;;3.45;1.00;;;;;;;18.53;41.35;101588.63;16139235;19;129735;-47
2022/12/07 13:16:09;;;;;;;2.65;1.17;;;;;;;18.48;41.58;101583.78;16144318;19;129434;-41
2022/12/07 13:21:31;;;;;;;6.38;1.25;;;;;;;18.41;41.86;101572.78;16131182;19;129400;-45
2022/12/07 13:26:55;;;;;;;2.38;0.80;;;;;;;18.35;42.10;101562.56;16131827;19;129320;-42
2022/12/07 13:32:24;;;;;;;5.23;0.87;;;;;;;18.32;41.99;101549.19;16131343;19;129765;-49
2022/12/07 13:37:47;;;;;;;2.83;0.63;;;;;;;18.27;42.29;101544.34;16131378;19;130560;-48
2022/12/07 13:43:15;;;;;;;3.15;0.57;;;;;;;18.24;42.06;101543.94;16129647;19;129501;-40
2022/12/07 13:48:44;;;;;;;3.13;0.65;;;;;;;18.20;42.48;101542.72;16129808;19;130102;-40
2022/12/07 13:54:11;;;;;;;2.13;0.70;;;;;;;18.20;42.47;101539.94;16127085;19;129667;-44
2022/12/07 13:59:33;;;;;;;5.28;0.82;;;;;;;18.32;42.58;101535.34;16127113;19;132218;-42
2022/12/07 14:05:15;;;;;;;1.48;0.65;;;;;;;18.60;42.30;101532.06;16126795;19;129769;-40
2022/12/07 14:10:41;;;;;;;2.15;0.60;;;;;;;18.99;42.03;101526.25;16129705;19;129904;-50
2022/12/07 14:16:17;;;;;;;2.97;0.60;;;;;;;19.45;41.63;101511.94;16126475;19;129609;-48
2022/12/07 14:21:39;;;;;;;2.13;0.43;;;;;;;19.94;40.71;101515.38;16128536;19;129539;-50
2022/12/07 14:27:01;;;;;;;1.30;0.55;;;;;;;20.37;40.63;101512.50;16127443;19;129610;-51
2022/12/07 14:32:28;;;;;;;1.17;0.35;;;;;;;20.60;39.90;101503.28;16126796;19;129863;-48
2022/12/07 14:37:50;;;;;;;1.48;0.50;;;;;;;20.68;39.68;101499.25;16126709;19;129441;-50
2022/12/07 14:43:15;;;;;;;1.38;0.55;;;;;;;20.64;39.89;101493.34;16122453;19;130276;-47
2022/12/07 14:48:37;;;;;;;2.50;0.40;;;;;;;20.50;39.73;101498.34;16127188;19;129552;-49
2022/12/07 14:54:22;;;;;;;2.58;0.77;;;;;;;20.34;39.88;101499.97;16125299;19;134993;-48
2022/12/07 14:59:44;;;;;;;1.95;0.52;;;;;;;20.13;39.91;101493.09;16124887;19;129744;-49
2022/12/07 15:05:06;;;;;;;1.42;0.50;;;;;;;19.97;40.35;101489.09;16125600;19;130318;-48
2022/12/07 15:10:38;;;;;;;6.47;0.80;;;;;;;19.81;40.26;101487.88;16127823;19;129104;-51
2022/12/07 15:16:00;;;;;;;5.43;0.90;;;;;;;19.64;40.66;101491.38;16125985;19;130698;-50
2022/12/07 15:21:22;;;;;;;2.13;0.50;;;;;;;19.47;40.58;101477.34;16123817;19;128953;-42
2022/12/07 15:26:43;;;;;;;0.90;0.60;;;;;;;19.35;41.09;101477.31;16126072;19;132327;-43
2022/12/07 15:32:05;;;;;;;1.48;0.45;;;;;;;19.23;40.81;101473.66;16123406;19;129717;-41
2022/12/07 15:37:30;;;;;;;2.60;0.45;;;;;;;19.15;41.13;101474.81;16122311;19;129781;-41
2022/12/07 15:42:51;;;;;;;2.70;0.50;;;;;;;19.08;41.13;101474.06;16123152;19;130459;-40
2022/12/07 15:48:13;;;;;;;3.10;0.50;;;;;;;19.01;41.57;101478.88;16122827;19;134946;-41
2022/12/07 15:53:51;;;;;;;2.38;0.52;;;;;;;18.91;41.68;101471.13;16121826;19;130556;-41
2022/12/07 15:59:13;;;;;;;4.90;0.47;;;;;;;18.86;41.59;101465.44;16120532;19;130081;-42
2022/12/07 16:04:35;;;;;;;1.60;0.50;;;;;;;18.81;41.49;101456.97;16117983;19;129329;-43
2022/12/07 16:09:57;;;;;;;1.42;0.65;;;;;;;18.76;41.85;101457.69;16120913;19;130245;-42
2022/12/07 16:15:19;;;;;;;3.83;0.50;;;;;;;18.70;41.68;101465.03;16118036;19;131052;-43
2022/12/07 16:20:48;;;;;;;1.25;0.40;;;;;;;18.66;41.82;101463.78;16116055;19;131199;-41
2022/12/07 16:26:16;;;;;;;1.80;0.50;;;;;;;18.63;41.74;101455.94;16118184;19;129505;-41
2022/12/07 16:31:38;;;;;;;0.70;0.47;;;;;;;18.56;41.82;101463.50;16118113;19;129755;-40
2022/12/07 16:37:00;;;;;;;3.13;0.50;;;;;;;18.51;42.14;101455.03;16118047;19;129599;-41
2022/12/07 16:42:26;;;;;;;3.63;0.47;;;;;;;18.46;41.87;101456.56;16111879;19;129590;-41
2022/12/07 16:47:48;;;;;;;0.68;0.40;;;;;;;18.44;42.33;101458.75;16116226;19;129955;-43
2022/12/07 16:53:11;;;;;;;2.00;0.50;;;;;;;18.39;42.32;101441.94;16114963;19;129943;-42
2022/12/07 16:58:33;;;;;;;1.98;0.30;;;;;;;18.36;42.38;101439.59;16116807;19;130041;-45
2022/12/07 17:03:56;;;;;;;1.52;0.60;;;;;;;18.45;42.40;101446.59;16110663;19;130138;-40
2022/12/07 17:09:18;;;;;;;2.25;0.40;;;;;;;18.82;41.90;101436.50;16113706;19;129930;-41
2022/12/07 17:20:24;;;;;;;7.90;0.88;;;;;;;19.54;40.80;101427.28;16124856;19;130934;-42
2022/12/07 17:25:46;;;;;;;14.20;1.38;;;;;;;19.69;40.24;101419.31;16127998;19;129998;-41
2022/12/07 17:31:10;;;;;;;7.72;1.20;;;;;;;19.75;40.07;101413.88;16126610;19;129665;-41
2022/12/07 17:36:32;;;;;;;7.78;0.70;;;;;;;19.72;40.15;101408.81;16128739;19;129414;-41
2022/12/07 17:47:38;;;;;;;8.48;1.10;;;;;;;19.52;40.58;101393.38;16128968;19;130766;-42
2022/12/07 17:53:09;;;;;;;6.82;0.75;;;;;;;19.44;40.41;101386.25;16126528;19;130432;-40
2022/12/07 17:58:31;;;;;;;6.90;0.80;;;;;;;19.32;41.12;101394.56;16128621;19;129746;-44
2022/12/07 18:03:52;;;;;;;7.05;0.68;;;;;;;19.28;41.28;101398.91;16123016;19;129428;-42
2022/12/07 18:09:14;;;;;;;4.15;0.70;;;;;;;19.24;41.39;101383.81;16124058;19;130540;-43
2022/12/07 18:14:36;;;;;;;6.10;0.60;;;;;;;19.21;41.37;101381.50;16124734;19;129470;-40
2022/12/07 18:19:57;;;;;;;10.48;1.48;;;;;;;19.19;41.78;101380.91;16124691;19;132070;-41
2022/12/07 18:25:19;;;;;;;12.73;1.85;;;;;;;19.18;41.81;101377.25;16117552;19;129904;-42
2022/12/07 18:30:41;;;;;;;18.15;1.63;;;;;;;19.17;41.87;101372.81;16119925;19;130354;-40
2022/12/07 18:36:23;;;;;;;11.15;1.35;;;;;;;19.22;41.46;101377.66;16124275;19;129792;-41
2022/12/07 18:41:45;;;;;;;5.43;0.98;;;;;;;19.40;41.46;101370.31;16124711;19;129296;-41
2022/12/07 18:47:07;;;;;;;3.90;0.60;;;;;;;19.67;41.44;101360.44;16125281;19;129740;-40
2022/12/07 18:52:29;;;;;;;9.18;1.30;;;;;;;19.94;41.07;101368.22;16126274;19;129193;-40
2022/12/07 18:57:52;;;;;;;3.67;0.80;;;;;;;20.21;41.04;101364.91;16124787;19;129780;-41
2022/12/07 19:03:14;;;;;;;6.00;0.70;;;;;;;20.43;41.05;101356.75;16123746;19;130363;-43
2022/12/07 19:08:36;;;;;;;2.88;0.90;;;;;;;20.64;40.79;101364.63;16123148;19;129923;-51
2022/12/07 19:13:57;;;;;;;3.72;0.57;;;;;;;20.77;40.37;101356.03;16124814;19;130086;-47
2022/12/07 19:19:21;;;;;;;2.50;0.50;;;;;;;20.82;39.95;101358.03;16123056;19;129923;-47
2022/12/07 19:24:45;;;;;;;2.13;0.70;;;;;;;20.80;39.95;101340.75;16122223;19;129639;-51
2022/12/07 19:30:09;;;;;;;0.88;0.50;;;;;;;20.73;40.35;101344.53;16122482;19;129265;-50
2022/12/07 19:35:31;;;;;;;3.92;0.40;;;;;;;20.65;40.01;101341.31;16124700;19;130524;-50
2022/12/07 19:40:52;;;;;;;4.65;0.70;;;;;;;20.53;40.43;101335.78;16122748;19;129790;-50
2022/12/07 19:46:14;;;;;;;5.65;0.70;;;;;;;20.42;40.65;101323.66;16120903;19;129491;-47
2022/12/07 19:51:36;;;;;;;2.08;0.50;;;;;;;20.32;40.51;101323.44;16123892;19;129112;-41
2022/12/07 19:56:58;;;;;;;3.65;0.50;;;;;;;20.21;40.43;101327.97;16123707;19;129553;-41
2022/12/07 20:02:19;;;;;;;3.13;0.50;;;;;;;20.13;41.02;101331.97;16119749;19;130129;-42
2022/12/07 20:07:41;;;;;;;2.22;0.73;;;;;;;20.04;40.88;101322.38;16122075;19;129958;-41
2022/12/07 20:18:44;;;;;;;1.80;0.50;;;;;;;19.90;41.28;101317.06;16120064;19;129459;-42
2022/12/07 20:24:09;;;;;;;1.45;0.40;;;;;;;19.84;41.08;101304.13;16119860;19;129491;-40
2022/12/07 20:29:31;;;;;;;2.70;0.60;;;;;;;19.79;41.25;101301.28;16121598;19;129486;-41
2022/12/07 20:34:53;;;;;;;4.78;0.50;;;;;;;19.74;41.40;101306.69;16118724;19;129065;-40
2022/12/07 20:40:14;;;;;;;0.80;0.30;;;;;;;19.69;41.21;101293.56;16114639;19;129629;-42
2022/12/07 20:45:46;;;;;;;0.70;0.40;;;;;;;19.64;41.33;101301.75;16118702;19;129092;-40
2022/12/07 20:51:08;;;;;;;1.17;0.40;;;;;;;19.56;41.33;101297.47;16120952;19;129445;-41
2022/12/07 20:56:32;;;;;;;1.95;0.60;;;;;;;19.52;41.56;101293.47;16133157;19;129318;-40
2022/12/07 21:01:54;;;;;;;2.15;0.50;;;;;;;19.48;41.48;101281.16;16130005;19;129287;-43
2022/12/07 21:07:15;;;;;;;2.55;0.40;;;;;;;19.43;41.67;101273.56;16128766;19;130032;-40
2022/12/07 21:12:37;;;;;;;6.45;0.52;;;;;;;19.38;41.46;101279.84;16129132;19;129506;-41
2022/12/07 21:17:59;;;;;;;5.40;0.73;;;;;;;19.32;41.68;101278.03;16130157;19;129836;-41
2022/12/07 21:23:27;;;;;;;4.85;0.60;;;;;;;19.26;41.44;101270.69;16123644;19;129526;-41
2022/12/07 21:28:50;;;;;;;4.47;0.65;;;;;;;19.20;41.81;101260.56;16127080;19;130305;-44
2022/12/07 21:34:12;;;;;;;3.63;0.90;;;;;;;19.14;41.41;101264.28;16125806;19;129778;-46
2022/12/07 21:39:34;;;;;;;3.28;0.65;;;;;;;19.07;41.78;101270.81;16130941;19;132282;-42
2022/12/07 21:44:55;;;;;;;2.83;0.63;;;;;;;19.01;41.93;101255.13;16128477;19;130256;-42
2022/12/07 21:50:17;;;;;;;2.78;0.52;;;;;;;18.97;41.93;101270.53;16127557;19;130290;-42
2022/12/07 21:55:43;;;;;;;6.65;0.68;;;;;;;18.91;41.64;101260.41;16128629;19;129222;-41
2022/12/07 22:01:05;;;;;;;5.18;0.73;;;;;;;18.86;42.08;101268.59;16129335;19;129865;-43
2022/12/07 22:06:27;;;;;;;4.93;0.70;;;;;;;18.81;42.14;101255.47;16124460;19;129183;-41
2022/12/07 22:11:49;;;;;;;2.97;0.60;;;;;;;18.77;41.94;101248.69;16127589;19;129623;-40
2022/12/07 22:17:10;;;;;;;1.85;0.60;;;;;;;18.73;41.73;101242.81;16125962;19;130065;-42
2022/12/07 22:22:32;;;;;;;1.48;0.63;;;;;;;18.69;42.21;101238.84;16129571;19;130364;-42
2022/12/07 22:27:54;;;;;;;3.65;0.40;;;;;;;18.66;42.16;101231.00;16125550;19;130175;-40
2022/12/07 22:33:16;;;;;;;0.93;0.47;;;;;;;18.62;41.81;101224.22;16125522;19;130064;-40
2022/12/07 22:38:39;;;;;;;1.60;0.50;;;;;;;18.58;42.07;101207.25;16126743;19;131418;-41
2022/12/07 22:44:05;;;;;;;2.83;0.47;;;;;;;18.55;41.87;101213.25;16125237;19;130209;-41
2022/12/07 22:49:26;;;;;;;4.10;0.47;;;;;;;18.52;42.14;101208.22;16121158;19;129453;-41
2022/12/07 22:54:49;;;;;;;3.60;1.15;;;;;;;18.52;42.24;101199.03;16123056;19;130433;-41
2022/12/07 23:00:11;;;;;;;2.15;0.40;;;;;;;18.49;41.82;101188.44;16119491;19;129455;-45
2022/12/07 23:05:33;;;;;;;2.92;0.65;;;;;;;18.45;42.28;101186.16;16122524;19;129462;-46
2022/12/07 23:10:55;;;;;;;0.60;0.40;;;;;;;18.44;41.88;101190.00;16125841;19;131088;-43
2022/12/07 23:16:16;;;;;;;1.05;0.60;;;;;;;18.42;41.86;101180.22;16118616;19;130130;-41
2022/12/07 23:21:39;;;;;;;1.58;0.38;;;;;;;18.38;42.03;101168.75;16121276;19;133181;-43
2022/12/07 23:27:01;;;;;;;2.47;0.50;;;;;;;18.36;41.86;101154.31;16121877;19;129753;-42
2022/12/07 23:32:22;;;;;;;1.20;0.50;;;;;;;18.35;42.27;101155.38;16121209;19;130266;-40
2022/12/07 23:37:44;;;;;;;1.95;0.32;;;;;;;18.31;42.23;101151.41;16127725;19;129893;-40
2022/12/07 23:43:06;;;;;;;3.85;0.60;;;;;;;18.27;41.99;101147.44;16123680;19;129612;-42
2022/12/07 23:48:28;;;;;;;1.23;0.50;;;;;;;18.23;42.44;101148.97;16119475;19;129198;-40
2022/12/07 23:53:51;;;;;;;2.10;0.50;;;;;;;18.20;42.02;101142.00;16123847;19;129680;-40
2022/12/07 23:59:13;;;;;;;1.80;0.43;;;;;;;18.17;41.93;101136.09;16121658;19;129617;-40
